Time;durP1;ratioP1;P1;durP2;ratioP2;P2;SDS_P1;SDS_P2;PMS_P1;PMS_P2;Temp;Humidity;BMP_temperature;BMP_pressure;BME280_temperature;BME280_humidity;BME280_pressure;Samples;Min_cycle;Max_cycle;Signal;HPM_P1;HPM_P2
2021/10/19 00:00:28;;;;;;;61.10;33.40;;;;;;;7.87;86.20;99403.52;114172;1203;22641;-83
2021/10/19 00:03:08;;;;;;;55.80;32.20;;;;;;;7.88;86.18;99409.03;113758;1203;137558;-84
2021/10/19 00:05:49;;;;;;;65.30;34.40;;;;;;;7.88;85.92;99408.88;114720;1196;24037;-84
2021/10/19 00:08:16;;;;;;;52.40;31.00;;;;;;;7.89;85.86;99414.01;115445;1196;26411;-84
2021/10/19 00:10:43;;;;;;;58.90;32.70;;;;;;;7.89;85.95;99414.14;114029;1202;137668;-84
2021/10/19 00:13:11;;;;;;;55.20;32.60;;;;;;;7.90;86.01;99407.85;114494;1202;22784;-84
2021/10/19 00:15:38;;;;;;;55.30;31.70;;;;;;;7.88;85.77;99410.29;114744;1196;138392;-84
2021/10/19 00:18:06;;;;;;;54.70;30.70;;;;;;;7.86;85.88;99414.71;113741;1203;22448;-84
2021/10/19 00:20:47;;;;;;;55.20;29.00;;;;;;;7.85;86.04;99413.86;113819;1203;22939;-83
2021/10/19 00:23:14;;;;;;;50.40;29.10;;;;;;;7.85;85.99;99413.92;115659;1203;137487;-84
2021/10/19 00:25:41;;;;;;;55.20;30.20;;;;;;;7.84;85.94;99414.63;114350;1202;23183;-84
2021/10/19 00:28:08;;;;;;;52.90;29.50;;;;;;;7.84;86.36;99411.32;114610;1202;137528;-84
2021/10/19 00:30:49;;;;;;;56.20;31.70;;;;;;;7.85;86.05;99417.38;114737;1202;23963;-84
2021/10/19 00:33:16;;;;;;;52.00;29.90;;;;;;;7.86;85.81;99412.33;114884;1196;138307;-83
2021/10/19 00:35:43;;;;;;;55.60;30.70;;;;;;;7.86;85.72;99414.13;113793;1197;22481;-84
2021/10/19 00:38:10;;;;;;;57.40;32.00;;;;;;;7.84;86.14;99406.06;114080;1203;22478;-84
2021/10/19 00:40:37;;;;;;;50.70;29.40;;;;;;;7.84;86.08;99414.41;114612;1203;138103;-84
2021/10/19 00:43:19;;;;;;;52.40;29.50;;;;;;;7.82;85.91;99413.98;113806;1203;23287;-83
2021/10/19 00:45:47;;;;;;;52.20;28.90;;;;;;;7.82;86.13;99419.95;114042;1196;138190;-84
2021/10/19 00:48:31;;;;;;;54.50;30.30;;;;;;;7.82;85.81;99414.15;114344;1202;22449;-84
2021/10/19 00:50:58;;;;;;;54.40;29.60;;;;;;;7.79;85.78;99414.31;113746;1202;138414;-84
2021/10/19 00:53:26;;;;;;;49.90;28.10;;;;;;;7.77;85.57;99416.10;114090;1202;23104;-85
2021/10/19 00:55:53;;;;;;;53.40;29.60;;;;;;;7.75;85.76;99416.50;116042;1197;22477;-85
2021/10/19 00:58:20;;;;;;;50.60;29.60;;;;;;;7.73;86.05;99411.15;113970;1203;138722;-85
2021/10/19 01:00:47;;;;;;;49.50;28.60;;;;;;;7.73;85.86;99411.36;113881;1203;25165;-83
2021/10/19 01:03:14;;;;;;;50.90;29.00;;;;;;;7.72;85.80;99417.29;114081;1196;138532;-83
2021/10/19 01:05:41;;;;;;;51.10;27.10;;;;;;;7.71;86.23;99413.45;114681;1195;22244;-84
2021/10/19 01:08:10;;;;;;;51.00;28.40;;;;;;;7.71;86.16;99410.41;114350;1195;25046;-84
2021/10/19 01:10:38;;;;;;;51.60;29.20;;;;;;;7.71;86.07;99410.52;114750;1202;138072;-84
2021/10/19 01:13:19;;;;;;;53.70;28.60;;;;;;;7.71;86.15;99405.07;115409;1202;22228;-84
2021/10/19 01:15:47;;;;;;;52.00;29.30;;;;;;;7.71;85.96;99404.52;114699;1202;137924;-86
2021/10/19 01:18:15;;;;;;;50.40;28.30;;;;;;;7.71;86.25;99403.64;116158;1195;22456;-84
2021/10/19 01:20:56;;;;;;;51.80;29.90;;;;;;;7.71;85.99;99399.68;113702;1202;138271;-86
2021/10/19 01:23:23;;;;;;;52.20;28.30;;;;;;;7.71;85.92;99389.27;114260;1202;23129;-83
2021/10/19 01:25:51;;;;;;;46.80;25.80;;;;;;;7.71;86.25;99388.05;116175;1202;22556;-83
2021/10/19 01:28:21;;;;;;;49.10;27.30;;;;;;;7.73;86.19;99390.39;114248;1199;137664;-83
2021/10/19 01:31:02;;;;;;;51.10;28.20;;;;;;;7.75;86.14;99386.51;114160;1202;24102;-84
2021/10/19 01:33:29;;;;;;;49.20;27.50;;;;;;;7.76;86.14;99383.81;113789;1196;138354;-84
2021/10/19 01:36:12;;;;;;;48.00;27.30;;;;;;;7.79;86.13;99382.73;113820;1202;22474;-84
2021/10/19 01:38:53;;;;;;;51.30;28.30;;;;;;;7.82;86.18;99376.52;114064;1196;31718;-84
2021/10/19 01:41:34;;;;;;;50.70;29.40;;;;;;;7.81;86.02;99371.55;113947;1202;137579;-84
2021/10/19 01:44:15;;;;;;;48.80;28.50;;;;;;;7.81;85.90;99372.52;113751;1202;24068;-84
2021/10/19 01:46:56;;;;;;;49.00;27.40;;;;;;;7.80;85.90;99370.04;113936;1202;138280;-85
2021/10/19 01:49:24;;;;;;;47.80;27.80;;;;;;;7.79;85.97;99369.84;114079;1202;22548;-85
2021/10/19 01:52:05;;;;;;;48.20;28.20;;;;;;;7.80;85.77;99366.99;113882;1203;138320;-85
2021/10/19 01:54:32;;;;;;;47.10;28.50;;;;;;;7.78;85.82;99366.21;114289;1202;22467;-85
2021/10/19 01:56:59;;;;;;;48.00;27.90;;;;;;;7.77;85.86;99365.28;114118;1196;25124;-85
2021/10/19 01:59:40;;;;;;;48.10;28.80;;;;;;;7.75;86.02;99363.31;113777;1197;137829;-85
2021/10/19 02:02:07;;;;;;;51.60;27.70;;;;;;;7.75;85.78;99362.60;114493;1202;25196;-85
2021/10/19 02:04:34;;;;;;;53.60;28.90;;;;;;;7.74;85.83;99360.02;114003;1196;137690;-85
2021/10/19 02:07:02;;;;;;;53.40;28.10;;;;;;;7.75;85.71;99359.40;113978;1202;25155;-85
2021/10/19 02:09:30;;;;;;;49.90;28.00;;;;;;;7.73;85.86;99355.59;114204;1197;138074;-85
2021/10/19 02:11:57;;;;;;;49.50;27.70;;;;;;;7.73;85.97;99359.85;114294;1187;22562;-85
2021/10/19 02:14:38;;;;;;;49.00;26.90;;;;;;;7.73;85.83;99359.06;113748;1202;24076;-84
2021/10/19 02:17:19;;;;;;;47.70;26.90;;;;;;;7.73;85.70;99360.52;113813;1190;137850;-84
2021/10/19 02:19:46;;;;;;;50.10;29.10;;;;;;;7.71;85.93;99357.67;113768;1196;25112;-84
2021/10/19 02:22:31;;;;;;;49.90;29.10;;;;;;;7.70;85.80;99357.55;113435;1195;137757;-84
2021/10/19 02:24:59;;;;;;;50.80;28.20;;;;;;;7.70;85.73;99348.34;114690;1202;22503;-84
2021/10/19 02:27:27;;;;;;;51.30;27.50;;;;;;;7.68;85.58;99343.66;114030;1202;138761;-84
2021/10/19 02:29:54;;;;;;;44.40;26.00;;;;;;;7.68;85.65;99350.24;114066;1197;25058;-84
2021/10/19 02:32:21;;;;;;;53.10;28.80;;;;;;;7.66;85.41;99360.67;115196;1202;22379;-83
2021/10/19 02:34:48;;;;;;;52.60;29.40;;;;;;;7.60;85.40;99357.05;115005;1202;137945;-84
2021/10/19 02:37:16;;;;;;;53.10;29.70;;;;;;;7.58;85.48;99359.11;114123;1202;22433;-84
2021/10/19 02:39:57;;;;;;;45.20;26.20;;;;;;;7.56;85.52;99356.21;114654;1195;138344;-84
2021/10/19 02:42:25;;;;;;;46.10;27.40;;;;;;;7.53;85.42;99361.71;114481;1202;23063;-84
2021/10/19 02:44:52;;;;;;;47.50;27.40;;;;;;;7.49;85.44;99365.53;113779;1202;24081;-83
2021/10/19 02:47:19;;;;;;;46.60;27.70;;;;;;;7.44;85.34;99363.34;114563;1202;137763;-84
2021/10/19 02:49:46;;;;;;;49.40;27.90;;;;;;;7.39;85.49;99362.99;113641;1198;22974;-83
2021/10/19 02:52:14;;;;;;;45.30;26.30;;;;;;;7.36;85.47;99368.10;113827;1189;138264;-84
2021/10/19 02:54:41;;;;;;;43.30;25.50;;;;;;;7.34;85.62;99369.60;113875;1202;22453;-84
2021/10/19 02:57:09;;;;;;;46.60;25.00;;;;;;;7.32;85.64;99370.00;114046;1202;22462;-84
2021/10/19 02:59:50;;;;;;;47.40;26.10;;;;;;;7.28;85.89;99371.27;113996;1196;137137;-84
2021/10/19 03:02:31;;;;;;;44.20;25.20;;;;;;;7.27;85.76;99372.06;114172;1202;23238;-86
2021/10/19 03:04:58;;;;;;;40.20;23.50;;;;;;;7.26;85.82;99372.55;113868;1202;137831;-83
2021/10/19 03:07:25;;;;;;;45.50;24.50;;;;;;;7.25;85.96;99373.20;114043;1196;22423;-84
2021/10/19 03:09:52;;;;;;;40.30;23.70;;;;;;;7.23;86.05;99368.84;113825;1196;137772;-84
2021/10/19 03:12:19;;;;;;;40.60;23.50;;;;;;;7.22;85.83;99366.20;114345;1202;22437;-84
2021/10/19 03:14:46;;;;;;;42.90;23.00;;;;;;;7.21;85.84;99364.14;113762;1202;22448;-84
2021/10/19 03:17:13;;;;;;;39.40;21.30;;;;;;;7.19;85.68;99374.02;113350;1203;138279;-84
2021/10/19 03:19:40;;;;;;;39.20;22.40;;;;;;;7.18;86.17;99371.05;113643;1202;24149;-84
2021/10/19 03:22:06;;;;;;;43.20;22.10;;;;;;;7.17;86.19;99368.76;113761;1196;137552;-84
2021/10/19 03:24:47;;;;;;;39.00;21.70;;;;;;;7.17;86.07;99364.23;114196;1202;22455;-83
2021/10/19 03:27:28;;;;;;;37.20;21.80;;;;;;;7.16;86.10;99365.55;114250;1202;23535;-83
2021/10/19 03:29:55;;;;;;;41.40;22.10;;;;;;;7.16;86.02;99372.05;115332;1196;137646;-84
2021/10/19 03:32:22;;;;;;;45.20;22.70;;;;;;;7.17;86.36;99370.30;115483;1202;22467;-84
2021/10/19 03:34:49;;;;;;;40.90;22.90;;;;;;;7.16;86.17;99369.51;115221;1202;137445;-84
2021/10/19 03:37:15;;;;;;;46.40;23.90;;;;;;;7.17;86.12;99362.71;114536;1202;24078;-84
2021/10/19 03:39:42;;;;;;;40.40;21.80;;;;;;;7.19;86.07;99360.44;114925;1195;138401;-84
2021/10/19 03:42:23;;;;;;;30.80;18.50;;;;;;;7.20;86.03;99370.16;115973;1202;22468;-84
2021/10/19 03:44:50;;;;;;;33.80;18.60;;;;;;;7.21;85.85;99370.98;115516;1202;25136;-84
2021/10/19 03:47:31;;;;;;;31.00;18.40;;;;;;;7.22;85.87;99371.59;113869;1202;137531;-84
2021/10/19 03:49:58;;;;;;;34.50;17.90;;;;;;;7.22;85.82;99366.55;114559;1187;22295;-84
2021/10/19 03:52:25;;;;;;;30.80;16.40;;;;;;;7.22;85.95;99357.36;114994;1202;138459;-84
2021/10/19 03:54:52;;;;;;;30.20;16.80;;;;;;;7.21;85.71;99353.86;114903;1202;22471;-84
2021/10/19 03:57:33;;;;;;;32.10;18.20;;;;;;;7.21;85.96;99352.70;115191;1202;22555;-84
2021/10/19 04:00:00;;;;;;;31.70;17.60;;;;;;;7.23;86.05;99355.38;115266;1196;137150;-84
2021/10/19 04:02:27;;;;;;;35.10;18.10;;;;;;;7.25;85.86;99358.96;114645;1202;22439;-84
2021/10/19 04:05:09;;;;;;;32.20;18.40;;;;;;;7.27;86.18;99354.20;114896;1202;138383;-85
2021/10/19 04:07:36;;;;;;;30.20;17.40;;;;;;;7.30;86.05;99348.20;115155;1202;22346;-83
2021/10/19 04:10:05;;;;;;;33.80;19.70;;;;;;;7.31;85.84;99351.82;114270;1196;138228;-85
2021/10/19 04:12:32;;;;;;;36.30;18.30;;;;;;;7.33;86.11;99346.29;114625;1203;25068;-84
2021/10/19 04:14:58;;;;;;;34.00;18.40;;;;;;;7.33;85.92;99347.70;113583;1203;25143;-83
2021/10/19 04:17:25;;;;;;;32.20;18.50;;;;;;;7.34;85.92;99349.25;113910;1203;138237;-84
2021/10/19 04:20:08;;;;;;;33.80;18.10;;;;;;;7.36;85.70;99349.38;114934;1196;22575;-84
2021/10/19 04:22:34;;;;;;;35.40;19.30;;;;;;;7.37;85.66;99346.34;114197;1202;137354;-84
2021/10/19 04:25:02;;;;;;;38.90;20.70;;;;;;;7.39;85.92;99351.05;114771;1202;22466;-84
2021/10/19 04:27:29;;;;;;;40.30;21.20;;;;;;;7.38;85.77;99358.94;114796;1196;23166;-83
2021/10/19 04:30:11;;;;;;;39.90;21.20;;;;;;;7.35;85.52;99353.42;114580;1203;137927;-84
2021/10/19 04:32:51;;;;;;;33.00;19.80;;;;;;;7.34;85.57;99355.21;114673;1202;31566;-84
2021/10/19 04:35:18;;;;;;;37.80;21.10;;;;;;;7.32;85.76;99350.36;114688;1202;137459;-84
2021/10/19 04:37:45;;;;;;;39.70;22.50;;;;;;;7.32;85.78;99351.52;113931;1202;22453;-84
2021/10/19 04:40:26;;;;;;;43.40;21.90;;;;;;;7.32;85.74;99346.45;114108;1202;138350;-83
2021/10/19 04:42:53;;;;;;;37.30;21.10;;;;;;;7.33;85.78;99348.33;113735;1202;30255;-83
2021/10/19 04:45:21;;;;;;;35.80;19.60;;;;;;;7.32;85.31;99347.33;115472;1203;24115;-83
2021/10/19 04:47:48;;;;;;;35.10;20.10;;;;;;;7.32;85.68;99344.81;113958;1202;137949;-84
2021/10/19 04:50:30;;;;;;;36.60;20.20;;;;;;;7.30;85.18;99350.82;113961;1202;22562;-83
2021/10/19 04:52:57;;;;;;;40.30;20.70;;;;;;;7.27;85.29;99348.55;115529;1196;137828;-84
2021/10/19 04:55:24;;;;;;;40.10;22.10;;;;;;;7.23;85.13;99343.95;114395;1202;25122;-82
2021/10/19 04:57:51;;;;;;;30.30;18.30;;;;;;;7.22;85.17;99348.83;114329;1199;138746;-83
2021/10/19 05:00:18;;;;;;;40.80;21.20;;;;;;;7.20;84.93;99348.48;114989;1202;24095;-83
2021/10/19 05:02:59;;;;;;;41.10;20.10;;;;;;;7.17;84.88;99353.05;115228;1197;22794;-83
2021/10/19 05:05:26;;;;;;;41.00;22.90;;;;;;;7.16;85.12;99353.41;114633;1196;137514;-83
2021/10/19 05:07:54;;;;;;;38.40;21.00;;;;;;;7.14;84.93;99349.33;116048;1202;22235;-84
2021/10/19 05:10:21;;;;;;;37.60;20.10;;;;;;;7.09;84.94;99353.55;115177;1202;138461;-83
2021/10/19 05:12:48;;;;;;;39.10;20.20;;;;;;;7.05;84.73;99351.03;114703;1196;25137;-83
2021/10/19 05:15:16;;;;;;;39.80;22.40;;;;;;;7.01;84.83;99347.89;115133;1196;22862;-83
2021/10/19 05:17:44;;;;;;;39.30;20.80;;;;;;;7.00;85.19;99355.80;115427;1202;138036;-83
2021/10/19 05:20:12;;;;;;;40.10;21.70;;;;;;;6.96;85.14;99359.27;114801;1201;23067;-83
2021/10/19 05:22:39;;;;;;;38.40;22.00;;;;;;;6.94;85.30;99358.80;114226;1197;138018;-83
2021/10/19 05:25:20;;;;;;;37.10;20.70;;;;;;;6.94;85.35;99360.92;114998;1203;22366;-83
2021/10/19 05:28:01;;;;;;;36.50;20.60;;;;;;;6.93;85.06;99361.88;114024;1203;138432;-83
2021/10/19 05:30:27;;;;;;;36.70;21.40;;;;;;;6.92;85.04;99364.53;113687;1203;23354;-83
2021/10/19 05:32:54;;;;;;;43.00;22.60;;;;;;;6.92;85.50;99367.79;115839;1196;22463;-83
2021/10/19 05:35:35;;;;;;;32.30;18.90;;;;;;;6.92;85.52;99368.73;114110;1202;138470;-83
2021/10/19 05:38:02;;;;;;;37.80;19.20;;;;;;;6.92;85.47;99373.45;116532;1202;22174;-83
2021/10/19 05:40:29;;;;;;;35.20;21.70;;;;;;;6.94;85.16;99374.55;114732;1202;138336;-83
2021/10/19 05:42:56;;;;;;;35.60;20.10;;;;;;;6.94;85.07;99375.88;114395;1196;22228;-83
2021/10/19 05:45:23;;;;;;;39.60;20.60;;;;;;;6.93;85.25;99379.12;114021;1203;23286;-83
2021/10/19 05:47:50;;;;;;;40.50;20.50;;;;;;;6.90;84.99;99378.80;114965;1203;138097;-83
2021/10/19 05:50:18;;;;;;;34.30;19.60;;;;;;;6.89;85.27;99383.05;115397;1203;22454;-83
2021/10/19 05:52:45;;;;;;;36.40;19.90;;;;;;;6.89;85.31;99386.88;116496;1196;138227;-83
2021/10/19 05:55:12;;;;;;;34.40;20.20;;;;;;;6.89;85.32;99387.39;113733;1202;24031;-83
2021/10/19 05:57:39;;;;;;;32.90;19.90;;;;;;;6.88;85.29;99390.01;114937;1202;25250;-83
2021/10/19 06:00:08;;;;;;;40.10;20.30;;;;;;;6.90;85.09;99392.98;114959;1201;138386;-83
2021/10/19 06:02:40;;;;;;;36.60;19.40;;;;;;;6.92;85.50;99397.66;115458;1196;22454;-83
2021/10/19 06:05:08;;;;;;;35.30;18.30;;;;;;;6.96;85.31;99400.60;115797;1197;137628;-83
2021/10/19 06:07:35;;;;;;;38.50;20.70;;;;;;;6.99;85.28;99408.13;115637;1203;22229;-83
2021/10/19 06:10:03;;;;;;;41.50;20.60;;;;;;;6.99;85.23;99410.09;114752;1188;138057;-84
2021/10/19 06:12:30;;;;;;;36.10;20.80;;;;;;;7.02;85.25;99410.55;115012;1202;22985;-83
2021/10/19 06:15:11;;;;;;;39.80;19.40;;;;;;;7.07;85.29;99411.45;115910;1202;23315;-83
2021/10/19 06:17:38;;;;;;;38.50;21.80;;;;;;;7.08;85.21;99419.05;114505;1187;137342;-83
2021/10/19 06:20:06;;;;;;;40.70;21.30;;;;;;;7.10;85.39;99423.31;115611;1202;22978;-83
2021/10/19 06:22:33;;;;;;;40.40;22.40;;;;;;;7.14;85.49;99420.79;114263;1202;137564;-83
2021/10/19 06:25:00;;;;;;;41.90;20.70;;;;;;;7.20;85.74;99422.54;114593;1197;22442;-83
2021/10/19 06:27:27;;;;;;;34.00;19.30;;;;;;;7.27;85.52;99418.98;115561;1196;22579;-83
2021/10/19 06:29:55;;;;;;;34.20;18.80;;;;;;;7.33;85.43;99416.45;114269;1202;137616;-83
2021/10/19 06:32:23;;;;;;;32.10;19.10;;;;;;;7.36;84.89;99413.75;114638;1202;22284;-83
2021/10/19 06:34:50;;;;;;;32.90;17.30;;;;;;;7.37;85.05;99409.92;115537;1195;139314;-83
2021/10/19 06:37:17;;;;;;;31.30;18.50;;;;;;;7.39;85.04;99410.39;115176;1202;23199;-83
2021/10/19 06:39:44;;;;;;;29.90;17.70;;;;;;;7.43;85.17;99407.54;114706;1190;24000;-83
2021/10/19 06:42:11;;;;;;;32.80;18.10;;;;;;;7.49;85.43;99408.05;114242;1201;137364;-83
2021/10/19 06:44:38;;;;;;;40.30;19.90;;;;;;;7.56;85.32;99407.42;115209;1197;22438;-83
2021/10/19 06:47:05;;;;;;;36.00;20.10;;;;;;;7.63;85.44;99407.95;115935;1202;137474;-83
2021/10/19 06:49:32;;;;;;;36.90;19.60;;;;;;;7.70;85.46;99404.00;115225;1202;22492;-83
2021/10/19 06:51:59;;;;;;;29.00;18.20;;;;;;;7.74;85.30;99396.02;115278;1203;137866;-84
2021/10/19 06:54:26;;;;;;;34.70;19.70;;;;;;;7.79;85.10;99398.20;114429;1196;142964;-83
2021/10/19 06:56:53;;;;;;;37.30;20.30;;;;;;;7.85;85.11;99396.94;114007;1201;25101;-83
2021/10/19 06:59:20;;;;;;;31.80;18.30;;;;;;;7.91;85.12;99399.04;113889;1201;22443;-83
2021/10/19 07:01:47;;;;;;;38.10;20.70;;;;;;;7.96;84.77;99396.58;113836;1202;138253;-83
2021/10/19 07:04:14;;;;;;;33.60;20.00;;;;;;;8.00;84.77;99397.31;113839;1195;22561;-83
2021/10/19 07:06:41;;;;;;;37.50;21.40;;;;;;;8.05;85.01;99394.82;113690;1202;137941;-83
2021/10/19 07:09:08;;;;;;;36.00;21.10;;;;;;;8.08;85.02;99401.62;113324;1202;22922;-82
2021/10/19 07:11:35;;;;;;;34.70;19.60;;;;;;;8.10;84.94;99401.20;113767;1202;22426;-83
2021/10/19 07:14:02;;;;;;;34.80;19.70;;;;;;;8.13;84.75;99400.59;113801;1194;138319;-83
2021/10/19 07:16:29;;;;;;;32.10;19.40;;;;;;;8.18;84.71;99396.13;113801;1201;25125;-83
2021/10/19 07:18:56;;;;;;;29.20;17.80;;;;;;;8.24;84.79;99391.80;113705;1202;138024;-83
2021/10/19 07:21:23;;;;;;;32.50;18.90;;;;;;;8.29;84.83;99384.33;114164;1201;24168;-83
2021/10/19 07:23:50;;;;;;;33.80;19.00;;;;;;;8.33;84.80;99376.32;114367;1196;138121;-83
2021/10/19 07:26:17;;;;;;;27.70;16.90;;;;;;;8.41;84.88;99374.04;115214;1202;29695;-83
2021/10/19 07:28:44;;;;;;;33.10;16.10;;;;;;;8.49;84.72;99377.31;114457;1202;22505;-82
2021/10/19 07:31:11;;;;;;;30.70;14.50;;;;;;;8.56;84.54;99374.81;114000;1202;137279;-82
2021/10/19 07:33:38;;;;;;;22.80;13.30;;;;;;;8.63;84.53;99378.36;114896;1202;23266;-82
2021/10/19 07:36:06;;;;;;;25.50;13.80;;;;;;;8.70;84.17;99381.48;114083;1195;143280;-84
2021/10/19 07:38:33;;;;;;;24.50;13.40;;;;;;;8.79;84.44;99382.53;113989;1201;22431;-84
2021/10/19 07:41:00;;;;;;;24.60;13.20;;;;;;;8.88;84.30;99381.05;114060;1202;22974;-82
2021/10/19 07:43:29;;;;;;;26.60;14.70;;;;;;;8.98;84.02;99379.40;113700;1202;137482;-82
2021/10/19 07:45:56;;;;;;;25.20;14.70;;;;;;;9.06;83.88;99378.47;114008;1196;22454;-84
2021/10/19 07:48:24;;;;;;;25.30;14.60;;;;;;;9.13;83.82;99384.84;113440;1196;137466;-83
2021/10/19 07:50:53;;;;;;;19.20;12.00;;;;;;;9.21;83.77;99379.60;113726;1203;22492;-83
2021/10/19 07:53:20;;;;;;;22.30;12.90;;;;;;;9.32;83.86;99377.56;114648;1203;23199;-83
2021/10/19 07:55:47;;;;;;;19.00;12.40;;;;;;;9.41;83.52;99379.33;113991;1196;144668;-83
2021/10/19 07:58:14;;;;;;;22.70;13.60;;;;;;;9.50;83.14;99376.65;113865;1202;22695;-83
2021/10/19 08:00:43;;;;;;;25.10;13.60;;;;;;;9.60;83.10;99371.47;113317;1199;137586;-83
2021/10/19 08:03:10;;;;;;;28.60;14.00;;;;;;;9.71;83.01;99375.08;113969;1202;24094;-83
2021/10/19 08:05:41;;;;;;;17.90;11.20;;;;;;;9.80;82.89;99374.59;113474;1196;138155;-83
2021/10/19 08:08:11;;;;;;;14.70;9.00;;;;;;;9.91;82.25;99370.14;113929;1203;24079;-84
2021/10/19 08:10:41;;;;;;;12.70;7.10;;;;;;;10.02;81.83;99369.61;114100;1196;24089;-83
2021/10/19 08:13:09;;;;;;;12.00;6.30;;;;;;;10.14;81.29;99370.50;113689;1196;142653;-83
2021/10/19 08:15:38;;;;;;;9.30;5.50;;;;;;;10.27;81.00;99370.89;114270;1197;22463;-83
2021/10/19 08:18:18;;;;;;;10.30;6.00;;;;;;;10.40;80.60;99373.15;114299;1202;137155;-83
2021/10/19 08:20:45;;;;;;;11.90;6.70;;;;;;;10.52;80.30;99373.02;114263;1197;22458;-84
2021/10/19 08:23:12;;;;;;;11.30;6.30;;;;;;;10.62;79.57;99375.98;113398;1202;138816;-83
2021/10/19 08:25:40;;;;;;;9.50;5.90;;;;;;;10.72;79.19;99376.09;113646;1196;33608;-84
2021/10/19 08:28:07;;;;;;;8.40;4.80;;;;;;;10.82;78.61;99377.29;113314;1203;25028;-83
2021/10/19 08:30:34;;;;;;;8.50;5.10;;;;;;;10.92;78.32;99375.26;113044;1203;138895;-83
2021/10/19 08:33:02;;;;;;;8.30;5.60;;;;;;;11.02;77.85;99377.97;113459;1203;26382;-84
2021/10/19 08:35:29;;;;;;;7.40;4.90;;;;;;;11.09;77.11;99376.77;113637;1195;137500;-84
2021/10/19 08:38:13;;;;;;;10.10;5.30;;;;;;;11.17;77.02;99373.88;114531;1202;22483;-83
2021/10/19 08:40:42;;;;;;;6.80;4.40;;;;;;;11.24;76.79;99373.93;114205;1186;23748;-83
2021/10/19 08:43:09;;;;;;;8.50;5.00;;;;;;;11.29;75.45;99375.99;113681;1202;137805;-83
2021/10/19 08:45:36;;;;;;;8.20;5.00;;;;;;;11.35;75.36;99379.66;114151;1196;22545;-84
2021/10/19 08:48:04;;;;;;;9.40;5.20;;;;;;;11.43;75.17;99376.45;113851;1202;142959;-83
2021/10/19 08:50:31;;;;;;;7.90;5.00;;;;;;;11.53;75.35;99376.30;113339;1202;47245;-85
2021/10/19 08:52:58;;;;;;;12.60;5.90;;;;;;;11.64;74.90;99375.96;114025;1202;25007;-83
2021/10/19 08:55:25;;;;;;;10.30;5.10;;;;;;;11.73;74.44;99375.35;113418;1188;137911;-84
2021/10/19 08:57:52;;;;;;;10.70;5.70;;;;;;;11.80;73.77;99374.38;113876;1195;22552;-83
2021/10/19 09:00:25;;;;;;;13.90;5.00;;;;;;;11.86;73.43;99375.89;113699;1196;138443;-83
2021/10/19 09:02:52;;;;;;;10.40;5.00;;;;;;;11.96;73.41;99365.92;113981;1187;24040;-83
2021/10/19 09:05:25;;;;;;;12.90;4.30;;;;;;;12.04;73.06;99365.80;113506;1196;22423;-83
2021/10/19 09:08:18;;;;;;;7.10;4.60;;;;;;;12.13;72.61;99366.46;113576;1200;150823;-83
2021/10/19 09:10:49;;;;;;;10.40;4.60;;;;;;;12.22;72.13;99366.42;113646;1203;23140;-82
2021/10/19 09:13:18;;;;;;;11.00;3.90;;;;;;;12.33;72.27;99370.59;114278;1197;138098;-83
2021/10/19 09:15:47;;;;;;;6.70;3.80;;;;;;;12.45;72.15;99372.14;115383;1203;24051;-83
2021/10/19 09:18:20;;;;;;;6.40;3.70;;;;;;;12.57;71.12;99373.55;114855;1196;137415;-83
2021/10/19 09:20:50;;;;;;;5.50;3.10;;;;;;;12.67;70.71;99368.30;114809;1202;22468;-83
2021/10/19 09:23:21;;;;;;;5.30;3.40;;;;;;;12.77;70.34;99365.54;114612;1202;22452;-82
2021/10/19 09:25:51;;;;;;;5.90;3.40;;;;;;;12.86;69.64;99365.38;115046;1201;137640;-83
2021/10/19 09:28:39;;;;;;;6.20;3.80;;;;;;;12.96;69.93;99368.52;113930;1203;22725;-83
2021/10/19 09:31:07;;;;;;;4.60;3.20;;;;;;;13.08;69.38;99366.70;114177;1204;137474;-83
2021/10/19 09:33:34;;;;;;;8.20;3.80;;;;;;;13.14;68.75;99369.36;115081;1203;22915;-82
2021/10/19 09:36:02;;;;;;;5.30;3.40;;;;;;;13.21;68.02;99372.23;115043;1203;137366;-83
2021/10/19 09:38:30;;;;;;;8.20;2.90;;;;;;;13.28;68.26;99366.55;113710;1196;25247;-83
2021/10/19 09:40:59;;;;;;;4.00;2.90;;;;;;;13.35;67.02;99359.23;113765;1200;22446;-83
2021/10/19 09:43:33;;;;;;;4.50;3.30;;;;;;;13.41;66.92;99352.84;113396;1189;137696;-83
2021/10/19 09:46:06;;;;;;;;;;;;;;;13.48;66.89;99351.67;114809;1203;22511;-83
2021/10/19 09:48:35;;;;;;;4.50;2.50;;;;;;;13.53;66.63;99350.94;114118;1196;123872;-83
2021/10/19 09:51:03;;;;;;;3.90;2.70;;;;;;;13.59;66.34;99349.14;114009;1203;24108;-83
2021/10/19 09:53:30;;;;;;;5.40;2.60;;;;;;;13.65;66.16;99353.60;114532;1203;22561;-83
2021/10/19 09:55:59;;;;;;;9.10;3.10;;;;;;;13.72;65.58;99354.55;114174;1188;137591;-83
2021/10/19 09:58:25;;;;;;;6.50;4.00;;;;;;;13.76;64.61;99347.90;114009;1196;24143;-83
2021/10/19 10:00:53;;;;;;;8.30;3.70;;;;;;;13.79;64.61;99349.13;114058;1203;137304;-83
2021/10/19 10:03:21;;;;;;;6.50;3.90;;;;;;;13.84;64.64;99343.85;114577;1203;24101;-83
2021/10/19 10:05:48;;;;;;;6.20;4.00;;;;;;;13.91;64.92;99336.08;113857;1203;22976;-83
2021/10/19 10:08:20;;;;;;;5.00;4.00;;;;;;;13.96;64.79;99330.27;113648;1203;137147;-82
2021/10/19 10:11:01;;;;;;;8.00;4.20;;;;;;;14.00;64.38;99329.45;114791;1203;22462;-82
2021/10/19 10:13:28;;;;;;;5.70;4.50;;;;;;;14.05;64.30;99327.80;113823;1196;139257;-83
2021/10/19 10:15:55;;;;;;;7.60;4.40;;;;;;;14.09;63.96;99326.05;113846;1203;24284;-82
2021/10/19 10:18:33;;;;;;;6.50;4.30;;;;;;;14.14;63.41;99323.73;113691;1196;137491;-83
2021/10/19 10:21:18;;;;;;;7.20;4.50;;;;;;;14.19;63.15;99313.86;113370;1204;22458;-82
2021/10/19 10:23:45;;;;;;;8.80;5.10;;;;;;;14.23;62.57;99310.19;113909;1203;22552;-82
2021/10/19 10:26:25;;;;;;;5.80;4.50;;;;;;;14.28;62.81;99305.23;113403;1203;137415;-82
2021/10/19 10:28:53;;;;;;;6.40;4.50;;;;;;;14.36;63.40;99298.40;113854;1196;22477;-83
2021/10/19 10:31:24;;;;;;;5.30;4.00;;;;;;;14.46;63.05;99296.70;113783;1202;137230;-82
2021/10/19 10:34:02;;;;;;;7.70;4.00;;;;;;;14.55;62.56;99292.80;113942;1202;22449;-82
2021/10/19 10:36:38;;;;;;;6.10;4.00;;;;;;;14.65;62.00;99296.05;113657;1202;138395;-82
2021/10/19 10:39:07;;;;;;;7.30;4.20;;;;;;;14.72;61.85;99291.17;114514;1202;22441;-82
2021/10/19 10:41:43;;;;;;;9.30;4.40;;;;;;;14.80;61.90;99287.71;113572;1197;24355;-83
2021/10/19 10:44:12;;;;;;;8.30;4.80;;;;;;;14.87;61.27;99283.86;113955;1202;139498;-83
2021/10/19 10:46:40;;;;;;;5.50;4.20;;;;;;;14.93;60.82;99287.23;113769;1202;22498;-83
2021/10/19 10:49:14;;;;;;;13.90;5.40;;;;;;;14.96;60.74;99289.79;113805;1196;137288;-82
2021/10/19 10:51:43;;;;;;;5.70;3.50;;;;;;;14.99;60.01;99289.45;113835;1202;22454;-83
2021/10/19 10:54:15;;;;;;;4.60;3.60;;;;;;;15.04;59.55;99290.06;114054;1180;137512;-83
2021/10/19 10:56:41;;;;;;;7.10;3.30;;;;;;;15.11;59.51;99283.96;114411;1202;24144;-84
2021/10/19 10:59:09;;;;;;;5.90;3.50;;;;;;;15.18;59.92;99281.14;114083;1195;22558;-83
2021/10/19 11:01:35;;;;;;;6.20;3.40;;;;;;;15.28;59.70;99282.80;113927;1202;137320;-83
2021/10/19 11:04:05;;;;;;;4.60;3.00;;;;;;;15.37;59.19;99276.83;113872;1202;22726;-83
2021/10/19 11:06:34;;;;;;;5.00;3.40;;;;;;;15.45;58.85;99269.66;114188;1201;137586;-83
2021/10/19 11:09:11;;;;;;;6.80;3.60;;;;;;;15.55;58.76;99256.38;115011;1196;22433;-84
2021/10/19 11:11:40;;;;;;;6.10;4.10;;;;;;;15.62;58.29;99252.11;116169;1202;22091;-83
2021/10/19 11:14:23;;;;;;;5.20;4.10;;;;;;;15.71;58.72;99246.77;114958;1201;137301;-83
2021/10/19 11:16:53;;;;;;;;;;;;;;;15.82;58.78;99240.48;114944;1196;22463;-83
2021/10/19 11:19:33;;;;;;;12.20;5.10;;;;;;;15.91;58.23;99237.88;115252;1196;124403;-84
2021/10/19 11:22:06;;;;;;;5.90;4.00;;;;;;;16.02;57.90;99232.55;114037;1188;22485;-87
2021/10/19 11:24:36;;;;;;;6.40;4.40;;;;;;;16.10;57.50;99225.29;115328;1203;138164;-86
2021/10/19 11:27:05;;;;;;;5.10;4.00;;;;;;;16.18;57.41;99223.14;114094;1203;22466;-85
2021/10/19 11:29:36;;;;;;;;;;;;;;;16.24;57.22;99221.34;115133;1195;23339;-86